createdAt,value
2022-10-28T00:04:42.439Z,6.93
2022-10-28T00:09:45.336Z,7.45
2022-10-28T00:14:48.313Z,7.90
2022-10-28T00:19:52.621Z,7.20
2022-10-28T00:24:55.759Z,6.57
2022-10-28T00:29:58.786Z,7.90
2022-10-28T00:35:03.325Z,6.80
2022-10-28T00:40:07.169Z,6.82
2022-10-28T00:45:11.492Z,6.82
2022-10-28T00:50:36.364Z,5.88
2022-10-28T00:55:39.777Z,6.25
2022-10-28T01:00:42.918Z,6.57
2022-10-28T01:05:49.360Z,6.78
2022-10-28T01:11:25.129Z,6.20
2022-10-28T01:16:35.729Z,6.00
2022-10-28T01:22:07.207Z,5.90
2022-10-28T01:27:26.321Z,6.35
2022-10-28T01:32:39.722Z,6.63
2022-10-28T01:37:50.795Z,6.13
2022-10-28T01:43:01.206Z,6.32
2022-10-28T01:48:11.206Z,6.67
2022-10-28T01:53:19.597Z,6.30
2022-10-28T01:58:27.688Z,6.10
2022-10-28T02:03:33.162Z,6.70
2022-10-28T02:08:52.019Z,7.03
2022-10-28T02:14:05.905Z,6.90
2022-10-28T02:19:17.046Z,6.33
2022-10-28T02:24:25.293Z,6.27
2022-10-28T02:29:34.479Z,6.10
2022-10-28T02:34:44.242Z,6.30
2022-10-28T02:39:53.572Z,6.27
2022-10-28T02:45:01.430Z,6.50
2022-10-28T02:50:09.987Z,5.43
2022-10-28T02:55:13.265Z,5.57
2022-10-28T03:00:18.802Z,5.47
2022-10-28T03:05:23.217Z,5.30
2022-10-28T03:10:26.355Z,5.27
2022-10-28T03:15:29.333Z,5.73
2022-10-28T03:20:33.682Z,5.97
2022-10-28T03:25:36.898Z,5.03
2022-10-28T03:30:40.074Z,5.40
2022-10-28T03:35:45.628Z,5.63
2022-10-28T03:40:49.491Z,5.27
2022-10-28T03:45:52.615Z,5.17
2022-10-28T03:50:57.201Z,5.00
2022-10-28T03:56:03.841Z,5.07
2022-10-28T04:01:06.798Z,5.07
2022-10-28T04:06:11.425Z,4.83
2022-10-28T04:11:14.478Z,4.30
2022-10-28T04:16:17.413Z,4.30
2022-10-28T04:21:21.961Z,4.80
2022-10-28T04:26:25.038Z,3.97
2022-10-28T04:31:28.092Z,4.93
2022-10-28T04:36:32.498Z,4.77
2022-10-28T04:41:35.552Z,4.47
2022-10-28T04:46:38.447Z,4.13
2022-10-28T04:51:42.919Z,4.60
2022-10-28T04:56:46.031Z,4.30
2022-10-28T05:01:49.059Z,4.32
2022-10-28T05:07:12.798Z,4.00
2022-10-28T05:12:15.861Z,4.23
2022-10-28T05:17:18.979Z,4.45
2022-10-28T05:22:23.226Z,4.03
2022-10-28T05:27:27.062Z,5.35
2022-10-28T05:32:29.973Z,4.10
2022-10-28T05:37:34.610Z,4.33
2022-10-28T05:42:43.472Z,4.47
2022-10-28T05:47:47.198Z,4.43
2022-10-28T05:52:53.445Z,4.43
2022-10-28T05:57:57.294Z,4.23
2022-10-28T06:03:06.930Z,4.07
2022-10-28T06:08:12.368Z,4.23
2022-10-28T06:13:14.027Z,4.50
2022-10-28T06:18:18.958Z,4.20
2022-10-28T06:23:24.295Z,3.80
2022-10-28T06:28:27.900Z,4.20
2022-10-28T06:33:31.568Z,4.72
2022-10-28T06:38:36.046Z,4.37
2022-10-28T06:43:39.010Z,4.65
2022-10-28T06:48:43.546Z,4.28
2022-10-28T06:53:51.545Z,4.30
2022-10-28T06:58:55.899Z,5.10
2022-10-28T07:03:59.318Z,4.17
2022-10-28T07:09:04.012Z,3.80
2022-10-28T07:14:07.252Z,4.50
2022-10-28T07:19:10.276Z,5.15
2022-10-28T07:24:14.787Z,4.53
2022-10-28T07:29:18.185Z,4.28
2022-10-28T07:34:26.013Z,4.70
2022-10-28T07:39:32.210Z,4.87
2022-10-28T07:44:35.306Z,5.05
2022-10-28T07:49:38.351Z,4.07
2022-10-28T07:54:42.692Z,4.55
2022-10-28T07:59:45.886Z,4.57
2022-10-28T08:04:49.065Z,4.70
2022-10-28T08:09:54.784Z,4.38
2022-10-28T08:14:57.930Z,4.32
2022-10-28T08:20:00.931Z,4.85
2022-10-28T08:25:05.870Z,4.43
2022-10-28T08:30:10.062Z,4.85
2022-10-28T08:35:13.193Z,5.30
2022-10-28T08:40:17.680Z,5.32
2022-10-28T08:45:32.707Z,4.20
2022-10-28T08:50:47.129Z,4.60
2022-10-28T08:55:54.620Z,4.00
2022-10-28T09:01:00.266Z,4.40
2022-10-28T09:06:05.376Z,4.65
2022-10-28T09:11:27.292Z,4.60
2022-10-28T09:16:43.011Z,4.35
2022-10-28T09:21:49.441Z,4.88
2022-10-28T09:27:03.708Z,5.25
2022-10-28T09:32:16.762Z,4.50
2022-10-28T09:37:23.964Z,4.68
2022-10-28T09:42:32.233Z,5.07
2022-10-28T09:47:41.648Z,5.30
2022-10-28T09:53:00.318Z,4.38
2022-10-28T09:58:06.592Z,3.70
2022-10-28T10:03:09.882Z,4.57
2022-10-28T10:08:16.377Z,4.20
2022-10-28T10:13:25.034Z,3.88
2022-10-28T10:18:32.845Z,3.60
2022-10-28T10:28:49.587Z,3.70
2022-10-28T10:33:55.473Z,3.90
2022-10-28T10:39:00.249Z,4.05
2022-10-28T10:44:26.079Z,4.18
2022-10-28T10:49:30.415Z,4.03
2022-10-28T10:54:34.597Z,3.38
2022-10-28T10:59:39.299Z,3.60
2022-10-28T11:04:42.385Z,3.80
2022-10-28T11:09:50.548Z,4.32
2022-10-28T11:15:00.371Z,4.03
2022-10-28T11:20:25.068Z,3.95
2022-10-28T11:25:37.296Z,4.07
2022-10-28T11:30:54.089Z,3.88
2022-10-28T11:36:05.111Z,4.22
2022-10-28T11:41:18.804Z,4.28
2022-10-28T11:46:43.499Z,3.83
2022-10-28T11:51:53.234Z,4.07
2022-10-28T11:57:02.987Z,3.50
2022-10-28T12:02:24.344Z,3.75
2022-10-28T12:08:00.165Z,3.92
2022-10-28T12:13:12.932Z,4.30
2022-10-28T12:18:25.045Z,4.03
2022-10-28T12:23:30.878Z,3.95
2022-10-28T12:28:39.247Z,4.10
2022-10-28T12:33:47.340Z,4.65
2022-10-28T12:38:58.637Z,4.40
2022-10-28T12:44:06.397Z,3.90
2022-10-28T12:49:19.158Z,4.55
2022-10-28T12:54:29.741Z,4.07
2022-10-28T12:59:39.051Z,4.70
2022-10-28T13:04:43.638Z,4.03
2022-10-28T13:09:58.969Z,4.05
2022-10-28T13:15:32.782Z,4.10
2022-10-28T13:20:49.229Z,3.60
2022-10-28T13:26:00.809Z,4.45
2022-10-28T13:31:06.162Z,3.78
2022-10-28T13:36:18.592Z,3.67
2022-10-28T13:41:34.586Z,3.45
2022-10-28T13:47:06.971Z,4.00
2022-10-28T13:52:22.319Z,4.05
2022-10-28T13:57:30.034Z,3.25
2022-10-28T14:02:38.457Z,3.22
2022-10-28T14:07:54.737Z,3.88
2022-10-28T14:13:00.774Z,3.70
2022-10-28T14:18:22.355Z,4.07
2022-10-28T14:24:06.024Z,3.63
2022-10-28T14:34:45.155Z,3.75
2022-10-28T14:40:07.109Z,3.45
2022-10-28T14:45:24.311Z,3.63
2022-10-28T14:50:39.184Z,4.18
2022-10-28T14:55:46.900Z,3.17
2022-10-28T15:01:01.803Z,3.30
2022-10-28T15:06:24.851Z,3.40
2022-10-28T15:11:27.907Z,4.30
2022-10-28T15:16:30.978Z,3.80
2022-10-28T15:21:35.425Z,3.65
2022-10-28T15:26:38.526Z,3.60
2022-10-28T15:32:06.727Z,3.65
2022-10-28T15:37:12.122Z,3.35
2022-10-28T15:42:32.686Z,4.18
2022-10-28T15:47:38.445Z,3.95
2022-10-28T15:52:44.787Z,4.25
2022-10-28T15:57:50.351Z,4.13
2022-10-28T16:02:58.471Z,3.88
2022-10-28T16:08:06.883Z,4.68
2022-10-28T16:13:18.680Z,8.82
2022-10-28T16:18:22.596Z,6.65
2022-10-28T16:23:34.119Z,7.57
2022-10-28T16:28:38.140Z,5.05
2022-10-28T16:33:43.709Z,5.45
2022-10-28T16:38:48.204Z,4.47
2022-10-28T16:43:51.366Z,4.80
2022-10-28T16:48:54.482Z,4.15
2022-10-28T16:54:01.648Z,4.05
2022-10-28T16:59:04.829Z,5.13
2022-10-28T17:04:09.409Z,4.10
2022-10-28T17:09:13.919Z,4.60
2022-10-28T17:14:17.027Z,4.72
2022-10-28T17:19:20.421Z,4.95
2022-10-28T17:24:25.003Z,4.70
2022-10-28T17:29:28.452Z,4.85
2022-10-28T17:34:31.577Z,4.40
2022-10-28T17:39:36.009Z,4.68
2022-10-28T17:44:39.046Z,5.35
2022-10-28T17:49:42.488Z,5.15
2022-10-28T17:54:46.889Z,4.80
2022-10-28T17:59:50.008Z,4.25
2022-10-28T18:04:53.050Z,4.15
2022-10-28T18:09:57.478Z,4.03
2022-10-28T18:15:00.951Z,4.70
2022-10-28T18:20:04.237Z,4.63
2022-10-28T18:25:10.195Z,5.22
2022-10-28T18:30:13.768Z,4.47
2022-10-28T18:35:17.269Z,4.30
2022-10-28T18:40:21.745Z,6.18
2022-10-28T18:45:25.107Z,4.43
2022-10-28T18:50:28.118Z,4.72
2022-10-28T18:55:32.735Z,4.07
2022-10-28T19:00:36.395Z,4.43
2022-10-28T19:05:39.588Z,4.55
2022-10-28T19:10:44.083Z,4.05
2022-10-28T19:15:47.729Z,4.90
2022-10-28T19:20:50.832Z,3.85
2022-10-28T19:25:58.877Z,4.18
2022-10-28T19:31:03.048Z,3.72
2022-10-28T19:36:08.281Z,4.10
2022-10-28T19:41:14.512Z,4.00
2022-10-28T19:46:19.596Z,5.20
2022-10-28T19:51:25.073Z,4.03
2022-10-28T19:56:31.531Z,3.83
2022-10-28T20:01:36.597Z,4.75
2022-10-28T20:06:41.203Z,4.90
2022-10-28T20:11:45.595Z,4.32
2022-10-28T20:16:49.261Z,5.35
2022-10-28T20:21:52.503Z,4.53
2022-10-28T20:26:57.437Z,4.10
2022-10-28T20:32:00.516Z,4.43
2022-10-28T20:37:03.620Z,4.13
2022-10-28T20:42:07.948Z,3.55
2022-10-28T20:47:11.049Z,4.28
2022-10-28T20:52:16.608Z,4.57
2022-10-28T20:57:21.029Z,4.43
2022-10-28T21:02:24.357Z,4.38
2022-10-28T21:07:27.578Z,4.28
2022-10-28T21:12:31.986Z,4.03
2022-10-28T21:17:35.049Z,3.97
2022-10-28T21:22:38.088Z,3.53
2022-10-28T21:27:42.713Z,4.20
2022-10-28T21:32:46.347Z,4.95
2022-10-28T21:37:49.488Z,4.65
2022-10-28T21:42:53.955Z,4.28
2022-10-28T21:47:57.763Z,4.13
2022-10-28T21:53:04.279Z,4.75
2022-10-28T21:58:09.419Z,3.75
2022-10-28T22:03:14.351Z,3.92
2022-10-28T22:08:17.899Z,3.43
2022-10-28T22:13:22.600Z,5.32
2022-10-28T22:18:25.905Z,3.87
2022-10-28T22:23:29.165Z,3.83
2022-10-28T22:28:34.080Z,4.20
2022-10-28T22:33:37.609Z,4.80
2022-10-28T22:38:41.321Z,4.20
2022-10-28T22:43:47.365Z,5.33
2022-10-28T22:48:50.934Z,5.60
2022-10-28T22:53:54.034Z,4.60
2022-10-28T22:59:00.029Z,6.10
2022-10-28T23:04:03.048Z,6.18
2022-10-28T23:09:06.187Z,5.13
2022-10-28T23:14:10.575Z,5.10
2022-10-28T23:19:13.563Z,5.40
2022-10-28T23:24:16.490Z,5.80
2022-10-28T23:29:21.009Z,5.63
2022-10-28T23:34:24.250Z,4.90
2022-10-28T23:39:27.279Z,4.90
2022-10-28T23:44:31.606Z,3.83
2022-10-28T23:49:34.721Z,4.37
2022-10-28T23:54:38.294Z,5.90
2022-10-28T23:59:42.734Z,7.17
